Latest Coastal Weather Observations for Cooktown

IDQ60701

Issued at 9:42 am EST Sunday 7 February 2016 (issued every 10 minutes, with the page automatically refreshed every 10 minutes)

About coastal observations | Map of coastal stations | Coastal observations for QLD | Marine services | Other Formats
Station Details ID: 031209 Name: COOKTOWN AIRPORT Lat: -15.45 Lon: 145.19 Height: 4.8 m
Data from the previous 72 hours. | See also: Recent months at Cooktown
Date/Time
EST
Temp

°C
Wind Pressure Rain
since 9am
mm
Weather Cloud Vis
km
Sea
Height
m
Swell
Dir
 
Speed
knots
Gust
knots
hPa Trend Height
m
Period
s
Dir
07/09:30am 31.3 WNW 7 11 1007.3 - 0.0 - - 10 - - - -
07/09:00am 30.8 WNW 7 11 1007.2 - 0.0 - - 10 - - - -
07/08:30am 29.9 WNW 8 11 1007.2 - 0.0 - - 10 - - - -
07/08:00am 29.1 WNW 7 10 1007.2 - 0.0 - - 10 - - - -
07/07:30am 28.3 WNW 7 9 1006.9 - 0.0 - Partly cloudy 10 - - - -
07/07:00am 27.1 NW 5 7 1006.7 - 0.0 - Partly cloudy 10 - - - -
07/06:30am 26.6 W 4 5 1006.4 - 0.0 - Cloudy 10 - - - -
07/06:00am 26.3 WNW 3 3 1005.9 - 0.0 - Cloudy 10 - - - -
07/05:30am 26.0 CALM 0 0 1005.4 - 0.0 - Partly cloudy 10 - - - -
07/05:00am 26.0 WSW 1 3 1005.1 - 0.0 - - 10 - - - -
07/04:30am 26.2 WNW 4 5 1004.8 - 0.0 - - 10 - - - -
07/04:00am 26.2 NW 2 3 1004.7 - 0.0 - - 10 - - - -
07/03:30am 26.4 W 3 4 1004.4 - 0.0 - - 10 - - - -
07/03:00am 26.7 WSW 1 4 1004.4 - 0.0 - Mostly clear 10 - - - -
07/02:30am 26.6 CALM 0 0 1004.7 - 0.0 - Partly cloudy 10 - - - -
07/02:00am 26.8 CALM 0 0 1005.0 - 0.0 - Partly cloudy 10 - - - -
07/01:30am 27.0 NW 1 4 1005.4 - 0.0 - - 10 - - - -
07/01:00am 27.1 NW 4 5 1005.7 - 0.0 - - 10 - - - -
07/12:30am 27.6 WNW 2 4 1005.9 - 0.0 - - 10 - - - -
07/12:00am 27.8 NW 3 5 1006.3 - 0.0 - Mostly clear 10 - - - -
 
Date/Time
EST
Temp

°C
Wind Pressure Rain
since 9am
mm
Weather Cloud Vis
km
Sea
Height
m
Swell
Dir
 
Speed
knots
Gust
knots
hPa Trend Height
m
Period
s
Dir
06/11:30pm 28.6 NW 6 8 1006.7 - 0.0 - Partly cloudy 10 - - - -
06/11:00pm 28.3 NNW 4 5 1006.5 - 0.0 - Partly cloudy 10 - - - -
06/10:30pm 29.0 NNW 5 6 1006.5 - 0.0 - Partly cloudy 10 - - - -
06/10:00pm 28.6 N 5 6 1006.2 - 0.0 - Partly cloudy 10 - - - -
06/09:30pm 28.6 NW 2 4 1006.0 - 0.0 - Partly cloudy 10 - - - -
06/09:00pm 28.2 CALM 0 0 1005.3 - 0.0 - Mostly clear 10 - - - -
06/08:30pm 28.8 CALM 0 0 1004.7 - 0.0 - Partly cloudy 10 - - - -
06/08:00pm 29.4 WSW 3 4 1004.0 - 0.0 - - 10 - - - -
06/07:30pm 29.6 N 5 7 1003.6 - 0.0 - Partly cloudy 10 - - - -
06/07:00pm 30.2 NW 6 9 1003.5 - 0.0 - Partly cloudy 10 - - - -
06/06:30pm 31.2 N 8 13 1002.7 - 0.0 - Partly cloudy 10 - - - -
06/06:00pm 32.1 N 9 14 1001.9 - 0.0 - Partly cloudy 10 - - - -
06/05:30pm 32.3 N 9 14 1001.6 - 0.0 - Partly cloudy 10 - - - -
06/05:00pm 33.1 N 10 15 1001.1 - 0.0 - Partly cloudy 10 - - - -
06/04:30pm 33.5 NNE 9 12 1001.0 - 0.0 - - 10 - - - -
06/04:00pm 35.7 W 6 10 1001.1 - 0.0 - - 10 - - - -
06/03:30pm 35.3 WNW 7 10 1001.4 - 0.0 - - 10 - - - -
06/03:00pm 35.1 WNW 7 9 1001.6 - 0.0 - Mostly clear 10 - - - -
06/02:30pm 35.0 W 7 9 1002.0 - 0.0 - Partly cloudy 10 - - - -
06/02:00pm 34.8 WNW 8 11 1002.1 - 0.0 - - 10 - - - -
06/01:30pm 34.3 W 8 12 1002.5 - 0.0 - - 10 - - - -
06/01:00pm 33.8 WNW 7 13 1002.9 - 0.0 - - 10 - - - -
06/12:30pm 33.4 WNW 8 11 1003.3 - 0.0 - - 10 - - - -
06/12:00pm 33.4 WNW 9 13 1003.5 - 0.0 - Mostly clear 10 - - - -
06/11:30am 32.7 WNW 6 9 1004.0 - 0.0 - Partly cloudy 10 - - - -
06/11:00am 32.6 W 7 10 1004.3 - 0.0 - Partly cloudy 10 - - - -
06/10:30am 32.1 WNW 9 12 1004.6 - 0.0 - - 10 - - - -
06/10:00am 31.2 WNW 10 14 1004.8 - 0.0 - - 10 - - - -
06/09:30am 30.3 WNW 8 13 1004.9 - 0.0 - Partly cloudy 10 - - - -
06/09:00am 28.8 WNW 6 9 1004.8 R 62.0 Fine Partly cloudy 40 - - - -
06/08:30am 27.8 WNW 6 9 1004.8 - 62.0 - Cloudy 10 - - - -
06/08:00am 27.5 WNW 7 9 1004.7 - 62.0 - Partly cloudy 10 - - - -
06/07:30am 26.8 NW 6 7 1004.3 - 62.0 - Partly cloudy 10 - - - -
06/07:00am 26.4 W 4 5 1003.9 - 62.0 - Cloudy 10 - - - -
06/06:30am 25.5 W 4 5 1003.4 - 62.0 - - 10 - - - -
06/06:00am 25.1 CALM 0 0 1003.0 - 62.0 - - 10 - - - -
06/05:30am 25.2 SW 1 3 1002.8 - 62.0 - - 10 - - - -
06/05:00am 25.2 WNW 4 5 1002.5 - 62.0 - Partly cloudy 10 - - - -
06/04:30am 25.4 W 3 5 1002.3 - 62.0 - Partly cloudy 10 - - - -
06/04:17am 25.3 WSW 1 5 1002.2 - 62.0 - Partly cloudy 10 - - - -
06/04:00am 25.4 W 3 4 1002.1 - 62.0 - Partly cloudy 10 - - - -
06/03:36am 25.3 WSW 4 4 1002.2 - 62.0 - Partly cloudy 10 - - - -
06/03:30am 25.3 W 3 4 1002.2 - 62.0 - Partly cloudy 10 - - - -
06/03:00am 25.2 NW 2 3 1002.2 - 62.0 - Mostly clear 10 - - - -
06/02:30am 25.3 W 3 5 1002.2 - 62.0 - Partly cloudy 10 - - - -
06/02:00am 25.3 CALM 0 0 1002.4 - 62.0 - Partly cloudy 10 - - - -
06/01:30am 25.4 CALM 0 0 1002.7 - 62.0 - Partly cloudy 10 - - - -
06/01:00am 25.5 SW 1 3 1003.1 - 62.0 - Partly cloudy 10 - - - -
06/12:30am 25.4 WSW 2 4 1003.5 - 62.0 - Partly cloudy 10 - - - -
06/12:00am 25.3 WSW 2 4 1003.9 - 62.0 - Mostly clear 10 - - - -
 
Date/Time
EST
Temp

°C
Wind Pressure Rain
since 9am
mm
Weather Cloud Vis
km
Sea
Height
m
Swell
Dir
 
Speed
knots
Gust
knots
hPa Trend Height
m
Period
s
Dir
05/11:30pm 25.3 W 3 5 1004.2 - 62.0 - - 10 - - - -
05/11:00pm 25.2 WNW 5 6 1004.7 - 62.0 - Partly cloudy 10 - - - -
05/10:30pm 25.2 WSW 1 3 1004.8 - 62.0 - - 10 - - - -
05/10:00pm 25.2 NNW 3 5 1005.1 - 62.0 - Partly cloudy 10 - - - -
05/09:30pm 25.3 WNW 4 5 1005.0 - 62.0 - Partly cloudy 10 - - - -
05/09:00pm 25.4 NNW 4 5 1004.7 - 62.0 - Mostly clear 10 - - - -
05/08:30pm 25.3 S 3 5 1004.4 - 62.0 - Partly cloudy 10 - - - -
05/08:00pm 25.2 SSW 4 6 1004.1 - 62.0 - Partly cloudy 10 - - - -
05/07:30pm 25.2 N 8 11 1003.2 - 62.0 - Partly cloudy 10 - - - -
05/07:08pm 25.9 NW 7 9 1003.3 - 61.6 - Partly cloudy 10 - - - -
05/07:00pm 26.3 N 4 7 1003.2 - 61.6 - Partly cloudy 8 - - - -
05/06:57pm 26.4 N 4 7 1003.1 - 61.6 - Partly cloudy 3 - - - -
05/06:30pm 26.7 N 7 9 1003.1 - 51.6 - Partly cloudy 0.5 - - - -
05/06:00pm 27.4 NW 12 16 1002.1 - 17.8 - Cloudy 0.7 - - - -
05/05:48pm 28.7 NNE 8 13 1001.3 - 7.2 - Partly cloudy 1 - - - -
05/05:45pm 28.8 NNE 10 13 1001.2 - 5.2 - Partly cloudy 4 - - - -
05/05:30pm 30.2 E 7 8 1001.2 - 3.2 - Partly cloudy 10 - - - -
05/05:00pm 30.8 SSE 2 4 1001.2 - 3.0 - Partly cloudy 10 - - - -
05/04:30pm 30.7 ENE 5 6 1000.8 - 3.0 - Partly cloudy 10 - - - -
05/04:00pm 29.7 NE 1 4 1000.8 - 3.0 - Partly cloudy 10 - - - -
05/03:30pm 29.2 N 1 4 1001.3 - 3.0 - Partly cloudy 10 - - - -
05/03:00pm 28.3 NE 4 6 1001.4 - 3.0 - - 10 - - - -
05/02:30pm 27.5 NNE 6 8 1001.7 - 3.0 - Partly cloudy 10 - - - -
05/02:29pm 27.5 NNE 6 8 1001.7 - 3.0 - Partly cloudy 10 - - - -
05/02:04pm 26.8 N 14 23 1002.0 - 0.8 - Partly cloudy 5 - - - -
05/02:01pm 27.4 N 17 27 1002.0 - 0.2 - Partly cloudy 7 - - - -
05/02:00pm 27.5 NNW 18 27 1002.0 - 0.0 - Partly cloudy 7 - - - -
05/01:52pm 29.4 NNW 19 23 1002.1 - 0.0 - Partly cloudy 10 - - - -
05/01:30pm 34.0 WNW 6 10 1002.0 - 0.0 - Partly cloudy 10 - - - -
05/01:00pm 33.2 W 6 8 1002.3 - 0.0 - Partly cloudy 10 - - - -
05/12:30pm 33.6 WNW 8 12 1002.8 - 0.0 - - 10 - - - -
05/12:00pm 32.2 W 5 7 1003.4 - 0.0 - Cloudy 10 - - - -
05/11:30am 32.9 W 7 11 1003.7 - 0.0 - Partly cloudy 10 - - - -
05/11:00am 32.3 W 6 10 1004.1 - 0.0 - Partly cloudy 10 - - - -
05/10:30am 31.9 WNW 8 12 1004.5 - 0.0 - Partly cloudy 10 - - - -
05/10:00am 31.3 W 6 10 1005.0 - 0.0 - Partly cloudy 10 - - - -
05/09:30am 30.7 WNW 11 15 1005.1 - 0.0 - Partly cloudy 10 - - - -
05/09:00am 30.1 WNW 6 9 1004.8 R 0.0 Fine Partly cloudy 40 - - - -
05/08:30am 29.5 WNW 7 9 1004.8 - 0.0 - - 10 - - - -
05/08:00am 28.8 W 5 7 1004.4 - 0.0 - - 10 - - - -
05/07:30am 27.9 WNW 4 6 1004.3 - 0.0 - Partly cloudy 10 - - - -
05/07:00am 27.1 WSW 4 5 1004.2 - 0.0 - Cloudy 10 - - - -
05/06:30am 26.4 W 3 5 1004.2 - 0.0 - Partly cloudy 10 - - - -
05/06:00am 26.4 WSW 1 3 1003.7 - 0.0 - Partly cloudy 10 - - - -
05/05:30am 26.0 CALM 0 0 1003.3 - 0.0 - Partly cloudy 10 - - - -
05/05:00am 26.0 NNW 4 5 1003.1 - 0.0 - Partly cloudy 10 - - - -
05/04:30am 25.9 CALM 0 0 1002.7 - 0.0 - - 10 - - - -
05/04:00am 26.1 W 1 3 1002.9 - 0.0 - - 10 - - - -
05/03:30am 26.1 CALM 0 0 1003.0 - 0.0 - - 10 - - - -
05/03:00am 26.3 CALM 0 0 1002.9 - 0.0 - - 10 - - - -
05/02:30am 26.4 CALM 0 0 1003.2 - 0.0 - - 10 - - - -
05/02:00am 26.9 SSW 1 4 1003.5 - 0.0 - Partly cloudy 10 - - - -
05/01:30am 26.8 CALM 0 0 1003.9 - 0.0 - Partly cloudy 10 - - - -
05/01:00am 26.5 CALM 0 0 1004.2 - 0.0 - - 10 - - - -
05/12:30am 26.5 CALM 0 0 1004.4 - 0.0 - - 10 - - - -
05/12:00am 26.6 CALM 0 0 1004.8 - 0.0 - - 10 - - - -
 
Date/Time
EST
Temp

°C
Wind Pressure Rain
since 9am
mm
Weather Cloud Vis
km
Sea
Height
m
Swell
Dir
 
Speed
knots
Gust
knots
hPa Trend Height
m
Period
s
Dir
04/11:30pm 26.7 CALM 0 0 1005.3 - 0.0 - Partly cloudy 10 - - - -
04/11:00pm 27.4 NW 1 4 1005.6 - 0.0 - - 10 - - - -
04/10:30pm 27.5 NNW 2 4 1005.2 - 0.0 - - 10 - - - -
04/10:00pm 28.0 WNW 1 3 1005.1 - 0.0 - - 10 - - - -
04/09:30pm 28.0 NNW 3 4 1004.9 - 0.0 - - 10 - - - -
04/09:00pm 28.3 NW 4 5 1005.0 - 0.0 - - 10 - - - -
04/08:30pm 28.8 WNW 5 6 1004.9 - 0.0 - - 10 - - - -
04/08:00pm 29.9 W 7 11 1004.5 - 0.0 - - 10 - - - -
04/07:30pm 30.6 WNW 11 13 1004.1 - 0.0 - - 10 - - - -
04/07:00pm 31.3 NNW 5 7 1003.6 - 0.0 - Partly cloudy 10 - - - -
04/06:30pm 32.2 N 6 8 1003.1 - 0.0 - - 10 - - - -
04/06:00pm 33.0 N 6 9 1002.6 - 0.0 - - 10 - - - -
04/05:30pm 33.6 N 7 10 1002.5 - 0.0 - - 10 - - - -
04/05:00pm 34.2 NNW 8 11 1002.5 - 0.0 - - 10 - - - -
04/04:30pm 34.8 NW 10 13 1002.4 - 0.0 - - 10 - - - -
04/04:00pm 34.8 NW 9 12 1002.5 - 0.0 - Partly cloudy 10 - - - -
04/03:30pm 35.0 NNW 8 13 1002.8 - 0.0 - - 10 - - - -
04/03:00pm 34.9 NNW 12 17 1002.8 - 0.0 - Mostly clear 10 - - - -
04/02:30pm 35.3 W 9 14 1003.3 - 0.0 - - 10 - - - -
04/02:00pm 35.2 W 9 19 1003.7 - 0.0 - - 10 - - - -
04/01:30pm 35.2 W 10 15 1004.3 - 0.0 - Partly cloudy 10 - - - -
04/01:00pm 35.2 W 8 13 1005.0 - 0.0 - - 10 - - - -
04/12:30pm 34.1 WNW 11 15 1005.1 - 0.0 - - 10 - - - -
04/12:00pm 34.1 WNW 10 16 1005.4 - 0.0 - - 10 - - - -
04/11:30am 33.3 NW 13 17 1006.0 - 0.0 - Partly cloudy 10 - - - -
04/11:00am 32.8 W 10 17 1006.4 - 0.0 - - 10 - - - -
04/10:30am 32.4 W 8 13 1006.5 - 0.0 - Partly cloudy 10 - - - -
04/10:00am 31.7 W 10 17 1006.9 - 0.0 - - 10 - - - -

Other Formats:

Comma delimited format used in spreadsheet applications
http://www.bom.gov.au/fwo/IDQ60701/IDQ60701.95283.axf

JavaScript Object Notation format (JSON) in row-major order
http://www.bom.gov.au/fwo/IDQ60701/IDQ60701.95283.json